Time;durP1;ratioP1;P1;durP2;ratioP2;P2;SDS_P1;SDS_P2;PMS_P1;PMS_P2;Temp;Humidity;BMP_temperature;BMP_pressure;BME280_temperature;BME280_humidity;BME280_pressure;Samples;Min_cycle;Max_cycle;Signal;HPM_P1;HPM_P2
2022/08/27 00:01:58;;;;;;;12.88;11.48;;;;;;;22.63;nan;100263.44;4965360;28;20049;-84
2022/08/27 00:04:23;;;;;;;15.32;12.10;;;;;;;22.60;nan;100261.22;4962006;28;20468;-83
2022/08/27 00:06:49;;;;;;;13.10;11.70;;;;;;;22.58;nan;100260.63;4966152;28;20043;-83
2022/08/27 00:09:15;;;;;;;12.50;11.13;;;;;;;22.57;nan;100253.63;4956228;28;20352;-83
2022/08/27 00:11:40;;;;;;;11.50;10.30;;;;;;;22.55;nan;100250.34;4962775;28;20031;-83
2022/08/27 00:14:05;;;;;;;11.40;10.20;;;;;;;22.57;nan;100259.00;4960300;28;20039;-83
2022/08/27 00:16:31;;;;;;;10.20;9.20;;;;;;;22.56;nan;100256.53;4967418;28;20114;-83
2022/08/27 00:18:57;;;;;;;9.93;8.48;;;;;;;22.54;nan;100259.47;4951988;28;20243;-82
2022/08/27 00:21:22;;;;;;;11.02;9.35;;;;;;;22.51;nan;100257.25;4971007;28;20026;-84
2022/08/27 00:23:47;;;;;;;10.10;8.35;;;;;;;22.47;nan;100261.47;4963430;28;20388;-83
2022/08/27 00:26:14;;;;;;;9.55;8.57;;;;;;;22.40;nan;100258.09;4961331;28;20122;-83
2022/08/27 00:28:40;;;;;;;9.13;8.05;;;;;;;22.36;nan;100255.06;4965987;28;20034;-82
2022/08/27 00:31:06;;;;;;;8.10;7.03;;;;;;;22.33;nan;100252.81;4968393;28;20039;-83
2022/08/27 00:33:32;;;;;;;8.93;7.70;;;;;;;22.30;nan;100252.47;4963246;28;20035;-83
2022/08/27 00:35:57;;;;;;;9.45;8.20;;;;;;;22.22;nan;100254.47;4970897;28;20289;-83
2022/08/27 00:38:23;;;;;;;8.93;6.80;;;;;;;22.20;nan;100256.59;4968548;28;20538;-83
2022/08/27 00:40:49;;;;;;;6.88;5.90;;;;;;;22.20;nan;100251.19;4955951;28;20363;-83
2022/08/27 00:43:25;;;;;;;7.40;6.10;;;;;;;22.16;nan;100250.00;4953699;28;20031;-83
2022/08/27 00:45:54;;;;;;;7.15;6.05;;;;;;;22.14;nan;100254.78;4954414;28;20540;-83
2022/08/27 00:48:24;;;;;;;7.00;6.30;;;;;;;22.15;nan;100248.38;4952416;28;20050;-83
2022/08/27 00:50:52;;;;;;;7.13;6.43;;;;;;;22.14;nan;100251.28;4970999;28;20110;-83
2022/08/27 00:53:25;;;;;;;7.32;5.70;;;;;;;22.14;nan;100248.59;4968342;28;20100;-83
2022/08/27 00:56:16;;;;;;;6.93;5.05;;;;;;;22.16;nan;100249.19;4949885;28;20035;-84
2022/08/27 00:58:45;;;;;;;6.63;5.90;;;;;;;22.14;nan;100244.00;4961738;28;20050;-83
2022/08/27 01:01:14;;;;;;;7.25;6.00;;;;;;;22.13;nan;100247.78;4967774;28;20031;-83
2022/08/27 01:03:43;;;;;;;8.60;6.47;;;;;;;22.11;nan;100244.50;4968219;28;20037;-83
2022/08/27 01:06:11;;;;;;;5.80;4.85;;;;;;;22.11;nan;100241.81;4961191;28;20100;-83
2022/08/27 01:08:41;;;;;;;5.47;4.80;;;;;;;22.09;nan;100227.75;4965020;28;20042;-83
2022/08/27 01:11:07;;;;;;;7.25;6.32;;;;;;;22.03;nan;100236.78;4966154;28;20045;-82
2022/08/27 01:13:33;;;;;;;5.95;5.35;;;;;;;22.02;nan;100229.75;4955791;28;20065;-82
2022/08/27 01:16:00;;;;;;;7.20;5.45;;;;;;;22.01;nan;100239.69;4967170;28;20062;-83
2022/08/27 01:18:28;;;;;;;7.70;5.35;;;;;;;22.02;nan;100237.81;4964726;28;20039;-83
2022/08/27 01:21:15;;;;;;;7.20;6.00;;;;;;;22.01;nan;100238.88;4955735;28;20388;-83
2022/08/27 01:23:56;;;;;;;8.30;6.53;;;;;;;22.00;nan;100242.59;4964181;28;20041;-83
2022/08/27 01:26:22;;;;;;;8.27;6.60;;;;;;;22.01;nan;100230.81;4957505;28;20054;-83
2022/08/27 01:28:47;;;;;;;8.65;6.45;;;;;;;21.99;nan;100231.03;4950602;28;20036;-82
2022/08/27 01:31:13;;;;;;;6.88;6.18;;;;;;;21.99;nan;100235.59;4957848;28;20046;-83
2022/08/27 01:33:39;;;;;;;7.35;5.65;;;;;;;21.96;nan;100238.78;4960238;28;20051;-83
2022/08/27 01:36:05;;;;;;;7.40;6.10;;;;;;;21.94;nan;100236.31;4965390;28;20257;-83
2022/08/27 01:38:31;;;;;;;5.55;4.93;;;;;;;21.92;nan;100230.31;4952000;28;20477;-82
2022/08/27 01:40:57;;;;;;;7.47;5.97;;;;;;;21.85;nan;100235.81;4953066;28;20118;-83
2022/08/27 01:43:23;;;;;;;8.82;5.57;;;;;;;21.84;nan;100234.19;4959359;28;20031;-83
2022/08/27 01:45:50;;;;;;;7.22;5.53;;;;;;;21.81;nan;100234.66;4948387;28;20122;-82
2022/08/27 01:48:19;;;;;;;7.18;6.00;;;;;;;21.77;nan;100246.94;4948864;28;20574;-82
2022/08/27 01:50:47;;;;;;;7.07;5.70;;;;;;;21.72;nan;100232.56;4948378;28;20248;-82
2022/08/27 01:53:24;;;;;;;7.03;5.82;;;;;;;21.65;nan;100234.53;4965663;28;20031;-82
2022/08/27 01:55:52;;;;;;;7.55;5.70;;;;;;;21.60;nan;100237.91;4951781;28;20465;-83
2022/08/27 01:58:29;;;;;;;8.02;6.13;;;;;;;21.56;nan;100239.44;4965448;28;20066;-82
2022/08/27 02:00:58;;;;;;;7.93;6.30;;;;;;;21.49;nan;100238.72;4960366;28;20031;-82
2022/08/27 02:03:24;;;;;;;6.38;5.68;;;;;;;21.45;nan;100232.94;4959220;28;20043;-82
2022/08/27 02:05:50;;;;;;;8.25;5.95;;;;;;;21.38;nan;100233.06;4960436;28;20142;-82
2022/08/27 02:08:17;;;;;;;5.70;5.10;;;;;;;21.37;nan;100228.69;4954560;28;20047;-83
2022/08/27 02:10:44;;;;;;;6.22;5.50;;;;;;;21.33;nan;100230.22;4963321;28;20138;-82
2022/08/27 02:13:11;;;;;;;6.53;5.80;;;;;;;21.30;nan;100230.66;4963408;28;20034;-83
2022/08/27 02:15:37;;;;;;;5.63;5.13;;;;;;;21.24;nan;100222.69;4955885;28;20050;-82
2022/08/27 02:18:04;;;;;;;6.70;5.18;;;;;;;21.21;nan;100223.97;4946778;28;20047;-82
2022/08/27 02:20:30;;;;;;;7.07;5.28;;;;;;;21.16;nan;100224.66;4952689;28;20034;-82
2022/08/27 02:22:56;;;;;;;6.05;5.20;;;;;;;21.12;nan;100218.13;4946668;28;20135;-83
2022/08/27 02:25:21;;;;;;;8.70;6.25;;;;;;;21.07;nan;100217.16;4962977;28;20050;-83
2022/08/27 02:27:48;;;;;;;6.72;5.68;;;;;;;21.02;nan;100217.03;4953339;28;20089;-83
2022/08/27 02:30:19;;;;;;;7.65;5.55;;;;;;;20.97;nan;100215.00;4962530;28;20031;-83
2022/08/27 02:32:46;;;;;;;6.18;4.93;;;;;;;20.90;nan;100209.72;4948500;28;20028;-82
2022/08/27 02:35:12;;;;;;;6.28;4.70;;;;;;;20.84;nan;100218.72;4959252;28;20058;-83
2022/08/27 02:37:38;;;;;;;6.20;5.18;;;;;;;20.79;nan;100224.75;4966890;28;20039;-83
2022/08/27 02:40:06;;;;;;;6.15;5.20;;;;;;;20.74;nan;100223.81;4967173;28;20045;-83
2022/08/27 02:42:31;;;;;;;7.30;5.85;;;;;;;20.69;nan;100224.50;4948612;28;20058;-83
2022/08/27 02:44:57;;;;;;;;;;;;;;;20.63;nan;100227.25;4960143;28;20058;-83
2022/08/27 02:47:22;;;;;;;5.57;4.83;;;;;;;20.57;nan;100227.09;4959768;28;19914;-83
2022/08/27 02:49:48;;;;;;;6.07;4.47;;;;;;;20.56;nan;100230.00;4962201;28;20307;-83
2022/08/27 02:52:13;;;;;;;5.80;4.47;;;;;;;20.52;nan;100226.94;4948471;28;20357;-83
2022/08/27 02:54:39;;;;;;;6.03;4.53;;;;;;;20.50;nan;100222.84;4952747;28;20131;-83
2022/08/27 02:57:04;;;;;;;6.07;5.43;;;;;;;20.45;nan;100231.56;4948690;28;20046;-83
2022/08/27 02:59:30;;;;;;;7.07;5.40;;;;;;;20.42;nan;100223.94;4951262;28;20374;-83
2022/08/27 03:01:55;;;;;;;6.43;5.57;;;;;;;20.39;nan;100220.88;4950110;28;20045;-84
2022/08/27 03:04:21;;;;;;;6.70;5.00;;;;;;;20.36;nan;100222.97;4956838;28;20035;-82
2022/08/27 03:06:47;;;;;;;7.50;5.35;;;;;;;20.34;nan;100219.69;4949125;28;20105;-83
2022/08/27 03:09:13;;;;;;;6.15;5.20;;;;;;;20.35;nan;100215.97;4951014;28;20448;-84
2022/08/27 03:11:38;;;;;;;5.15;4.65;;;;;;;20.40;nan;100223.34;4962056;28;20125;-83
2022/08/27 03:14:04;;;;;;;6.30;5.22;;;;;;;20.44;nan;100221.84;4961626;28;20035;-83
2022/08/27 03:16:33;;;;;;;6.13;4.90;;;;;;;20.51;nan;100221.78;4967507;28;20058;-82
2022/08/27 03:18:59;;;;;;;6.60;5.18;;;;;;;20.52;nan;100218.88;4950678;28;20046;-82
2022/08/27 03:21:24;;;;;;;6.75;5.18;;;;;;;20.54;nan;100219.44;4955263;28;20039;-83
2022/08/27 03:23:50;;;;;;;6.88;5.53;;;;;;;20.57;nan;100215.56;4957415;28;20038;-82
2022/08/27 03:26:17;;;;;;;6.43;5.40;;;;;;;20.60;nan;100215.09;4956415;28;20408;-83
2022/08/27 03:28:43;;;;;;;6.68;5.75;;;;;;;20.62;nan;100217.53;4951651;28;20117;-83
2022/08/27 03:31:21;;;;;;;6.28;5.28;;;;;;;20.66;nan;100218.72;4953849;28;20533;-84
2022/08/27 03:33:46;;;;;;;8.05;5.95;;;;;;;20.65;nan;100211.72;4959778;28;20043;-83
2022/08/27 03:36:12;;;;;;;7.65;6.18;;;;;;;20.64;nan;100207.38;4962414;28;20034;-83
2022/08/27 03:38:37;;;;;;;6.68;5.97;;;;;;;20.65;nan;100209.03;4966178;28;20062;-83
2022/08/27 03:41:03;;;;;;;7.50;5.00;;;;;;;20.71;nan;100217.03;4967940;28;20042;-83
2022/08/27 03:43:29;;;;;;;5.22;4.70;;;;;;;20.77;nan;100215.28;4964096;28;20036;-83
2022/08/27 03:45:54;;;;;;;6.97;5.53;;;;;;;20.81;nan;100221.00;4952566;28;20547;-83
2022/08/27 03:48:20;;;;;;;7.63;6.60;;;;;;;20.85;nan;100225.72;4958542;28;20427;-82
2022/08/27 03:50:48;;;;;;;8.10;6.82;;;;;;;20.85;nan;100227.59;4969207;28;20037;-84
2022/08/27 03:53:15;;;;;;;9.82;7.38;;;;;;;20.83;nan;100227.81;4965337;28;20055;-82
2022/08/27 03:55:41;;;;;;;9.35;7.18;;;;;;;20.83;nan;100227.81;4961372;28;20054;-82
2022/08/27 03:58:10;;;;;;;11.88;8.20;;;;;;;20.82;nan;100231.53;4955401;28;20132;-83
2022/08/27 04:00:37;;;;;;;10.38;8.20;;;;;;;20.81;nan;100226.38;4951379;28;20027;-82
2022/08/27 04:03:04;;;;;;;9.85;7.22;;;;;;;20.84;nan;100231.34;4960113;28;20333;-83
2022/08/27 04:05:30;;;;;;;8.05;7.25;;;;;;;20.83;nan;100227.00;4958639;28;20532;-83
2022/08/27 04:07:55;;;;;;;9.20;8.02;;;;;;;20.81;nan;100226.38;4963188;28;20136;-83
2022/08/27 04:10:21;;;;;;;8.67;7.20;;;;;;;20.82;nan;100228.03;4962834;28;20403;-82
2022/08/27 04:12:46;;;;;;;10.60;7.87;;;;;;;20.82;nan;100234.25;4965156;28;20335;-82
2022/08/27 04:15:12;;;;;;;8.27;7.00;;;;;;;20.85;nan;100228.41;4969534;28;20792;-83
2022/08/27 04:17:38;;;;;;;7.00;6.30;;;;;;;20.87;nan;100233.56;4965542;28;20039;-83
2022/08/27 04:20:05;;;;;;;7.25;6.13;;;;;;;20.92;nan;100228.31;4968587;28;20034;-82
2022/08/27 04:22:32;;;;;;;8.40;6.13;;;;;;;20.98;nan;100232.78;4969482;28;20488;-83
2022/08/27 04:24:58;;;;;;;7.10;5.88;;;;;;;21.01;nan;100237.72;4968662;28;20450;-83
2022/08/27 04:27:25;;;;;;;10.43;6.75;;;;;;;20.98;nan;100236.31;4967200;28;20039;-82
2022/08/27 04:29:53;;;;;;;8.90;7.03;;;;;;;20.97;nan;100240.06;4964781;28;20104;-82
2022/08/27 04:32:18;;;;;;;7.35;6.20;;;;;;;20.97;nan;100239.19;4961115;28;20121;-83
2022/08/27 04:34:44;;;;;;;7.38;5.90;;;;;;;20.99;nan;100237.94;4966622;28;20683;-83
2022/08/27 04:37:09;;;;;;;9.30;5.97;;;;;;;21.02;nan;100236.66;4967109;28;20416;-83
2022/08/27 04:39:34;;;;;;;7.10;5.50;;;;;;;21.07;nan;100241.34;4964919;28;20046;-83
2022/08/27 04:42:00;;;;;;;8.00;5.65;;;;;;;21.09;nan;100250.00;4965384;28;20047;-82
2022/08/27 04:44:28;;;;;;;8.68;5.78;;;;;;;21.12;nan;100250.38;4964746;28;20057;-82
2022/08/27 04:46:56;;;;;;;8.60;6.05;;;;;;;21.14;nan;100248.28;4965132;28;20039;-82
2022/08/27 04:49:22;;;;;;;7.20;5.45;;;;;;;21.14;nan;100248.28;4961384;28;20032;-83
2022/08/27 04:51:47;;;;;;;8.40;5.70;;;;;;;21.15;nan;100254.50;4968157;28;20403;-82
2022/08/27 04:54:13;;;;;;;7.55;5.43;;;;;;;21.15;nan;100252.63;4967058;28;20046;-82
2022/08/27 04:56:38;;;;;;;7.03;6.10;;;;;;;21.16;nan;100248.84;4963692;28;20093;-82
2022/08/27 04:59:07;;;;;;;5.75;4.93;;;;;;;21.19;nan;100258.38;4966868;28;20738;-82
2022/08/27 05:01:33;;;;;;;7.50;4.90;;;;;;;21.21;nan;100251.72;4967946;28;20057;-83
2022/08/27 05:03:58;;;;;;;6.93;5.47;;;;;;;21.26;nan;100255.56;4961867;28;20049;-83
2022/08/27 05:06:24;;;;;;;8.80;6.45;;;;;;;21.23;nan;100262.22;4965697;28;20488;-83
2022/08/27 05:08:51;;;;;;;6.53;5.35;;;;;;;21.25;nan;100262.81;4959516;28;20321;-83
2022/08/27 05:11:18;;;;;;;7.22;5.50;;;;;;;21.25;nan;100260.13;4960698;28;20039;-83
2022/08/27 05:13:44;;;;;;;6.55;5.50;;;;;;;21.25;nan;100268.19;4969330;28;20034;-83
2022/08/27 05:16:12;;;;;;;6.50;5.03;;;;;;;21.26;nan;100256.41;4969037;28;20035;-82
2022/08/27 05:18:38;;;;;;;7.05;4.80;;;;;;;21.26;nan;100264.47;4959403;28;20400;-83
2022/08/27 05:21:05;;;;;;;6.13;4.90;;;;;;;21.27;nan;100265.28;4960720;28;20035;-82
2022/08/27 05:23:31;;;;;;;8.23;5.78;;;;;;;21.27;nan;100266.09;4948711;28;20043;-83
2022/08/27 05:25:57;;;;;;;8.48;5.88;;;;;;;21.28;nan;100261.53;4960576;28;20037;-82
2022/08/27 05:28:25;;;;;;;11.43;6.75;;;;;;;21.23;nan;100253.34;4968610;28;20027;-83
2022/08/27 05:30:55;;;;;;;7.85;6.07;;;;;;;21.25;nan;100252.06;4964679;28;20570;-82
2022/08/27 05:33:24;;;;;;;9.10;6.28;;;;;;;21.25;nan;100251.25;4962373;28;20035;-82
2022/08/27 05:35:53;;;;;;;6.50;5.22;;;;;;;21.30;nan;100251.38;4962785;28;20042;-82
2022/08/27 05:38:20;;;;;;;7.13;5.85;;;;;;;21.33;nan;100250.91;4966081;28;20046;-82
2022/08/27 05:40:46;;;;;;;10.93;6.85;;;;;;;21.31;nan;100253.00;4969105;28;20275;-82
2022/08/27 05:43:14;;;;;;;9.70;7.20;;;;;;;21.33;nan;100254.44;4958129;28;20031;-82
2022/08/27 05:45:44;;;;;;;11.43;7.80;;;;;;;21.29;nan;100252.44;4962844;28;20039;-83
2022/08/27 05:48:10;;;;;;;9.40;6.57;;;;;;;21.35;nan;100259.56;4967282;28;20080;-82
2022/08/27 05:50:40;;;;;;;10.45;6.97;;;;;;;21.35;nan;100254.19;4956296;28;20043;-84
2022/08/27 05:53:06;;;;;;;10.98;6.50;;;;;;;21.36;nan;100256.66;4963938;28;20177;-82
2022/08/27 05:55:37;;;;;;;9.98;6.88;;;;;;;21.38;nan;100251.88;4953884;28;20151;-83
2022/08/27 05:58:03;;;;;;;8.77;6.57;;;;;;;21.41;nan;100256.81;4956413;28;20171;-82
2022/08/27 06:03:12;;;;;;;10.02;6.40;;;;;;;21.49;nan;100263.72;4951889;28;20046;-81
2022/08/27 06:05:37;;;;;;;12.45;7.63;;;;;;;21.50;nan;100262.69;4950684;28;20234;-82
2022/08/27 06:08:03;;;;;;;10.27;7.03;;;;;;;21.47;nan;100265.84;4965374;28;20070;-82
2022/08/27 06:10:28;;;;;;;8.10;6.55;;;;;;;21.47;nan;100265.00;4955278;28;20042;-82
2022/08/27 06:12:54;;;;;;;10.63;7.53;;;;;;;21.46;nan;100266.09;4963038;28;20114;-83
2022/08/27 06:15:19;;;;;;;11.20;7.57;;;;;;;21.45;nan;100267.13;4956618;28;20061;-82
2022/08/27 06:17:44;;;;;;;11.43;8.48;;;;;;;21.37;nan;100263.66;4961578;28;20085;-82
2022/08/27 06:20:10;;;;;;;9.73;7.27;;;;;;;21.39;nan;100266.97;4967636;28;20038;-81
2022/08/27 06:22:35;;;;;;;8.85;6.20;;;;;;;21.45;nan;100272.50;4956155;28;20290;-83
2022/08/27 06:25:00;;;;;;;13.80;7.93;;;;;;;21.45;nan;100269.81;4959366;28;20062;-82
2022/08/27 06:27:26;;;;;;;11.35;7.50;;;;;;;21.48;nan;100272.06;4958332;28;20053;-82
2022/08/27 06:29:51;;;;;;;8.35;6.70;;;;;;;21.53;nan;100270.31;4952380;28;20031;-82
2022/08/27 06:32:16;;;;;;;10.35;6.60;;;;;;;21.55;nan;100270.09;4954088;28;20489;-83
2022/08/27 06:34:42;;;;;;;9.68;6.97;;;;;;;21.58;nan;100267.75;4963716;28;20046;-82
2022/08/27 06:37:08;;;;;;;8.63;6.32;;;;;;;21.64;nan;100271.38;4959516;28;20078;-83
2022/08/27 06:39:35;;;;;;;10.25;6.97;;;;;;;21.68;nan;100269.03;4963054;28;20393;-84
2022/08/27 06:42:00;;;;;;;9.40;7.47;;;;;;;21.65;nan;100273.03;4961942;28;20027;-82
2022/08/27 06:44:25;;;;;;;10.77;7.45;;;;;;;21.68;nan;100272.56;4964823;28;20046;-83
2022/08/27 06:46:51;;;;;;;9.52;6.72;;;;;;;21.72;nan;100268.34;4962670;28;20049;-82
2022/08/27 06:49:16;;;;;;;11.70;7.32;;;;;;;21.79;nan;100281.72;4959660;28;20042;-82
2022/08/27 06:51:46;;;;;;;9.25;7.43;;;;;;;21.82;nan;100282.06;4965805;28;20065;-82
2022/08/27 06:54:13;;;;;;;9.63;7.25;;;;;;;21.90;nan;100280.88;4958435;28;20420;-83
2022/08/27 06:56:39;;;;;;;10.32;7.07;;;;;;;22.03;nan;100287.94;4962910;28;20039;-83
2022/08/27 06:59:07;;;;;;;8.65;6.35;;;;;;;22.14;nan;100284.41;4962361;28;20105;-83
2022/08/27 07:01:37;;;;;;;10.25;7.72;;;;;;;22.15;nan;100283.38;4971857;28;20176;-83
2022/08/27 07:04:08;;;;;;;10.57;7.47;;;;;;;22.15;nan;100280.69;4957163;28;20040;-83
2022/08/27 07:06:35;;;;;;;11.18;7.70;;;;;;;22.21;nan;100287.03;4957046;28;20042;-82
2022/08/27 07:09:01;;;;;;;11.88;7.43;;;;;;;22.27;nan;100281.53;4962045;28;20066;-82
2022/08/27 07:11:28;;;;;;;8.93;6.28;;;;;;;22.38;nan;100281.75;4969692;28;20058;-83
2022/08/27 07:13:54;;;;;;;12.52;6.68;;;;;;;22.44;nan;100286.19;4965657;28;20074;-82
2022/08/27 07:16:22;;;;;;;11.95;7.40;;;;;;;22.37;nan;100282.81;4961038;28;20110;-83
2022/08/27 07:18:49;;;;;;;9.52;6.60;;;;;;;22.42;nan;100293.69;4968294;28;20039;-82
2022/08/27 07:21:15;;;;;;;8.85;6.97;;;;;;;22.52;nan;100299.28;4960323;28;20645;-82
2022/08/27 07:23:40;;;;;;;9.43;6.22;;;;;;;22.66;nan;100289.91;4966300;28;20215;-82
2022/08/27 07:26:11;;;;;;;9.63;6.20;;;;;;;22.82;nan;100287.53;4967201;28;20532;-83
2022/08/27 07:28:38;;;;;;;10.45;7.07;;;;;;;22.75;nan;100298.44;4968764;28;20282;-83
2022/08/27 07:31:08;;;;;;;9.27;6.55;;;;;;;22.71;nan;100288.38;4967377;28;20030;-82
2022/08/27 07:33:35;;;;;;;10.27;7.00;;;;;;;22.69;nan;100289.44;4968155;28;20031;-82
2022/08/27 07:36:02;;;;;;;8.88;6.55;;;;;;;22.77;nan;100292.84;4967573;28;20125;-82
2022/08/27 07:38:27;;;;;;;9.00;6.40;;;;;;;22.81;nan;100293.97;4966696;28;20049;-83
2022/08/27 07:40:53;;;;;;;10.10;6.77;;;;;;;22.85;nan;100295.13;4961012;28;20405;-83
2022/08/27 07:46:04;;;;;;;8.07;6.13;;;;;;;22.83;nan;100305.34;4963800;28;20050;-83
2022/08/27 07:48:32;;;;;;;9.65;6.80;;;;;;;22.76;nan;100305.47;4965988;28;20030;-82
2022/08/27 07:50:57;;;;;;;12.05;7.32;;;;;;;22.75;nan;100303.84;4965642;28;20035;-82
2022/08/27 07:53:22;;;;;;;11.73;7.35;;;;;;;22.69;nan;100302.09;4964840;28;20046;-83
2022/08/27 07:55:48;;;;;;;8.68;6.28;;;;;;;22.69;nan;100302.09;4961517;28;20073;-83
2022/08/27 07:58:13;;;;;;;12.02;6.97;;;;;;;22.62;nan;100312.16;4965010;28;20062;-84
2022/08/27 08:00:43;;;;;;;12.35;7.57;;;;;;;22.50;nan;100305.97;4966964;28;20120;-83
2022/08/27 08:03:10;;;;;;;11.25;7.00;;;;;;;22.54;nan;100316.06;4963895;28;20038;-83
2022/08/27 08:05:39;;;;;;;11.23;6.80;;;;;;;22.51;nan;100313.84;4966826;28;20450;-82
2022/08/27 08:08:04;;;;;;;8.63;6.45;;;;;;;22.59;nan;100318.03;4966600;28;20237;-83
2022/08/27 08:10:29;;;;;;;7.07;5.10;;;;;;;22.74;nan;100313.00;4960090;28;20047;-83
2022/08/27 08:12:55;;;;;;;7.77;6.10;;;;;;;22.83;nan;100321.50;4966362;28;20340;-82
2022/08/27 08:15:20;;;;;;;8.57;6.10;;;;;;;22.91;nan;100321.16;4966156;28;20689;-83
2022/08/27 08:17:45;;;;;;;10.40;7.03;;;;;;;23.03;nan;100319.28;4966003;28;20286;-83
2022/08/27 08:20:12;;;;;;;7.55;6.00;;;;;;;23.21;nan;100322.84;4964273;28;20396;-82
2022/08/27 08:22:37;;;;;;;9.38;5.45;;;;;;;23.52;nan;100330.44;4966140;28;20041;-83
2022/08/27 08:25:04;;;;;;;8.85;5.95;;;;;;;23.81;nan;100325.06;4961551;28;20034;-83
2022/08/27 08:27:31;;;;;;;7.38;5.75;;;;;;;23.95;nan;100325.53;4967231;28;20291;-84
2022/08/27 08:29:57;;;;;;;9.82;6.18;;;;;;;24.01;nan;100331.88;4963406;28;20038;-82
2022/08/27 08:32:22;;;;;;;12.43;6.90;;;;;;;24.03;nan;100329.75;4965930;28;20492;-82
2022/08/27 08:34:48;;;;;;;7.50;5.47;;;;;;;24.22;nan;100333.81;4962629;28;20047;-83
2022/08/27 08:37:13;;;;;;;7.73;5.00;;;;;;;24.50;nan;100324.81;4963591;28;20442;-83
2022/08/27 08:39:39;;;;;;;7.68;5.15;;;;;;;24.83;nan;100328.47;4967914;28;20515;-83
2022/08/27 08:42:07;;;;;;;7.18;5.07;;;;;;;25.14;nan;100326.94;4966722;28;20042;-83
2022/08/27 08:44:37;;;;;;;8.23;5.10;;;;;;;25.27;nan;100327.69;4962721;28;20045;-83
2022/08/27 08:47:22;;;;;;;8.05;5.10;;;;;;;25.43;nan;100324.03;4965131;28;20039;-82
2022/08/27 08:49:53;;;;;;;10.30;5.60;;;;;;;25.32;nan;100314.19;4960933;28;20038;-82
2022/08/27 08:52:26;;;;;;;8.85;5.95;;;;;;;25.44;nan;100312.16;4960997;28;20047;-82
2022/08/27 08:54:55;;;;;;;9.50;5.82;;;;;;;25.34;nan;100317.47;4959327;28;20079;-83
2022/08/27 08:57:27;;;;;;;9.60;5.20;;;;;;;25.39;nan;100314.81;4966024;28;20131;-82
2022/08/27 09:00:06;;;;;;;7.32;4.95;;;;;;;25.35;nan;100321.78;4963719;28;20051;-82
2022/08/27 09:02:31;;;;;;;8.93;5.82;;;;;;;25.33;nan;100323.94;4962329;28;20092;-82
2022/08/27 09:05:00;;;;;;;6.93;4.28;;;;;;;25.43;nan;100314.03;4963556;28;20442;-82
2022/08/27 09:07:37;;;;;;;7.32;5.00;;;;;;;25.44;nan;100322.97;4965856;28;20046;-82
2022/08/27 09:10:16;;;;;;;6.78;5.05;;;;;;;25.48;nan;100326.81;4961358;28;20031;-83
2022/08/27 09:12:42;;;;;;;8.40;5.18;;;;;;;25.47;nan;100327.06;4967687;28;20038;-83
2022/08/27 09:15:07;;;;;;;8.40;5.13;;;;;;;25.56;nan;100317.41;4966478;28;20043;-82
2022/08/27 09:17:34;;;;;;;10.60;5.10;;;;;;;25.54;nan;100330.38;4967001;28;20046;-83
2022/08/27 09:19:59;;;;;;;6.57;5.00;;;;;;;25.46;nan;100334.38;4962837;28;20031;-82
2022/08/27 09:22:47;;;;;;;6.15;4.80;;;;;;;25.43;nan;100334.88;4961381;28;20729;-82
2022/08/27 09:25:24;;;;;;;8.50;5.88;;;;;;;25.31;nan;100345.84;4961032;28;20093;-83
2022/08/27 09:27:54;;;;;;;6.85;5.03;;;;;;;25.30;nan;100343.41;4965622;28;20504;-82
2022/08/27 09:30:24;;;;;;;7.45;5.25;;;;;;;25.30;nan;100338.00;4963113;28;20106;-82
2022/08/27 09:32:55;;;;;;;8.25;5.40;;;;;;;25.37;nan;100338.59;4962793;28;20504;-84
2022/08/27 09:35:22;;;;;;;7.13;4.95;;;;;;;25.48;nan;100332.22;4959890;28;20051;-82
2022/08/27 09:37:51;;;;;;;5.25;4.07;;;;;;;25.59;nan;100336.66;4963257;28;20514;-85
2022/08/27 09:40:30;;;;;;;6.25;3.60;;;;;;;25.67;nan;100329.97;4971149;28;20507;-81
2022/08/27 09:43:04;;;;;;;7.00;4.40;;;;;;;25.74;nan;100338.72;4962927;28;20122;-84
2022/08/27 09:45:30;;;;;;;7.20;5.00;;;;;;;25.88;nan;100339.09;4965916;28;20042;-84
2022/08/27 09:48:05;;;;;;;8.32;4.80;;;;;;;25.98;nan;100335.66;4961854;28;20385;-85
2022/08/27 09:50:36;;;;;;;7.28;4.93;;;;;;;26.02;nan;100339.50;4963323;28;20043;-83
2022/08/27 09:53:02;;;;;;;7.60;4.63;;;;;;;26.01;nan;100338.69;4970061;28;20042;-82
2022/08/27 09:55:51;;;;;;;5.38;4.18;;;;;;;26.21;nan;100342.63;4974000;28;20051;-81
2022/08/27 09:58:42;;;;;;;7.93;5.45;;;;;;;26.43;nan;100342.50;4966078;28;20047;-84
2022/08/27 10:01:24;;;;;;;5.70;4.60;;;;;;;26.69;nan;100330.72;4974657;28;20034;-81
2022/08/27 10:04:02;;;;;;;8.77;4.95;;;;;;;26.81;nan;100335.94;4985093;28;20408;-84
2022/08/27 10:06:30;;;;;;;9.13;5.40;;;;;;;26.81;nan;100333.22;4967942;28;20047;-83
2022/08/27 10:09:04;;;;;;;5.90;4.85;;;;;;;26.84;nan;100331.88;4964697;28;20039;-80
2022/08/27 10:11:34;;;;;;;7.00;5.15;;;;;;;26.66;nan;100330.47;4971268;28;20050;-83
2022/08/27 10:14:26;;;;;;;6.55;4.60;;;;;;;26.32;nan;100327.25;4968614;28;20046;-84
2022/08/27 10:17:15;;;;;;;8.18;5.05;;;;;;;26.17;nan;100327.94;4969813;28;20039;-83
2022/08/27 10:19:45;;;;;;;8.25;5.15;;;;;;;26.04;nan;100330.03;4970745;28;20197;-82
2022/08/27 10:22:49;;;;;;;8.70;5.60;;;;;;;26.22;nan;100328.00;4971651;28;20035;-82
2022/08/27 10:25:45;;;;;;;7.00;4.72;;;;;;;26.78;nan;100320.22;4972565;28;20511;-83
2022/08/27 10:28:29;;;;;;;6.88;5.28;;;;;;;27.11;nan;100323.59;4957537;28;20074;-83
2022/08/27 10:31:21;;;;;;;5.95;4.40;;;;;;;27.61;nan;100327.53;4973823;28;20047;-80
2022/08/27 10:34:02;;;;;;;6.03;4.40;;;;;;;27.93;nan;100318.31;4969180;28;20043;-84
2022/08/27 10:36:39;;;;;;;5.70;4.00;;;;;;;28.06;nan;100325.13;4971161;28;20036;-83
2022/08/27 10:39:10;;;;;;;8.57;4.93;;;;;;;27.90;nan;100319.69;4968114;28;20061;-82
2022/08/27 10:41:45;;;;;;;6.10;4.00;;;;;;;27.84;nan;100318.06;4966081;28;20046;-84
2022/08/27 10:44:22;;;;;;;7.35;4.18;;;;;;;27.82;nan;100319.41;4963652;28;20020;-83
2022/08/27 10:46:51;;;;;;;7.72;4.78;;;;;;;27.67;nan;100321.03;4965203;28;20092;-84
2022/08/27 10:49:40;;;;;;;4.25;3.40;;;;;;;27.80;nan;100327.00;4971025;28;20027;-84
2022/08/27 10:52:21;;;;;;;6.13;4.80;;;;;;;27.80;nan;100319.66;4962172;28;20492;-82
2022/08/27 10:54:55;;;;;;;6.88;4.80;;;;;;;27.72;nan;100322.91;4968699;28;20051;-82
2022/08/27 10:57:54;;;;;;;6.30;4.72;;;;;;;27.72;nan;100322.91;4972576;28;20428;-83
2022/08/27 11:00:22;;;;;;;9.27;5.82;;;;;;;27.49;nan;100324.25;4969088;28;20117;-84
2022/08/27 11:02:54;;;;;;;7.93;4.90;;;;;;;27.30;nan;100323.94;4959960;28;20050;-82
2022/08/27 11:05:25;;;;;;;5.65;4.40;;;;;;;27.35;nan;100318.53;4987234;28;20128;-86
2022/08/27 11:08:02;;;;;;;6.95;4.47;;;;;;;27.57;nan;100322.91;4971849;28;20453;-85
2022/08/27 11:10:35;;;;;;;7.22;4.82;;;;;;;27.61;nan;100322.09;4969676;28;20399;-82
2022/08/27 11:13:09;;;;;;;5.68;3.88;;;;;;;27.86;nan;100323.22;4971082;28;20095;-82
2022/08/27 11:15:40;;;;;;;5.30;4.05;;;;;;;27.93;nan;100319.13;4968357;28;20408;-84
2022/08/27 11:18:34;;;;;;;5.78;4.10;;;;;;;27.89;nan;100319.97;4968967;28;20035;-80
2022/08/27 11:21:02;;;;;;;8.13;3.78;;;;;;;27.84;nan;100323.50;4972131;28;20255;-82
2022/08/27 11:23:46;;;;;;;4.55;3.67;;;;;;;28.04;nan;100313.72;4971693;28;20399;-82
2022/08/27 11:26:12;;;;;;;5.05;3.97;;;;;;;28.15;nan;100315.31;4968572;28;20614;-82
2022/08/27 11:28:40;;;;;;;4.57;3.80;;;;;;;28.32;nan;100312.31;4972766;28;20043;-84
2022/08/27 11:31:16;;;;;;;4.65;3.70;;;;;;;28.42;nan;100325.06;4964871;28;20492;-85
2022/08/27 11:34:09;;;;;;;4.57;3.65;;;;;;;28.45;nan;100317.16;4965262;28;20503;-84
2022/08/27 11:36:48;;;;;;;6.13;4.07;;;;;;;28.45;nan;100319.88;4969899;28;20043;-82
2022/08/27 11:39:38;;;;;;;5.47;4.00;;;;;;;28.36;nan;100321.53;4968688;28;20043;-83
2022/08/27 11:42:11;;;;;;;6.47;4.05;;;;;;;28.48;nan;100318.53;4970200;28;20558;-82
2022/08/27 11:44:48;;;;;;;5.50;4.28;;;;;;;28.46;nan;100321.56;4962722;28;20393;-83
2022/08/27 11:47:20;;;;;;;4.82;3.80;;;;;;;28.35;nan;100318.00;4971147;28;20043;-82
2022/08/27 11:49:49;;;;;;;4.65;3.58;;;;;;;28.44;nan;100322.91;4971580;28;20320;-84
2022/08/27 11:52:28;;;;;;;5.75;3.90;;;;;;;28.45;nan;100324.50;4966438;28;20059;-84
2022/08/27 11:55:13;;;;;;;6.35;4.63;;;;;;;28.16;nan;100320.47;4969075;28;20046;-83
2022/08/27 11:57:39;;;;;;;5.05;3.67;;;;;;;28.06;nan;100312.34;4962086;28;20042;-83